createdAt,value
2023-01-11T00:01:45.612Z,99727.06
2023-01-11T00:03:59.464Z,99720.72
2023-01-11T00:06:14.780Z,99722.83
2023-01-11T00:08:28.994Z,99722.84
2023-01-11T00:10:42.930Z,99727.82
2023-01-11T00:12:55.958Z,99728.02
2023-01-11T00:15:09.805Z,99731.73
2023-01-11T00:17:23.301Z,99729.98
2023-01-11T00:19:36.733Z,99733.11
2023-01-11T00:21:52.323Z,99739.20
2023-01-11T00:24:05.374Z,99743.48
2023-01-11T00:26:19.601Z,99740.66
2023-01-11T00:28:32.749Z,99742.68
2023-01-11T00:30:45.859Z,99747.20
2023-01-11T00:33:01.727Z,99746.48
2023-01-11T00:35:16.330Z,99747.89
2023-01-11T00:37:29.511Z,99753.09
2023-01-11T00:39:42.632Z,99756.54
2023-01-11T00:42:12.072Z,99763.51
2023-01-11T00:44:41.912Z,99768.20
2023-01-11T00:47:11.863Z,99776.91
2023-01-11T00:49:25.082Z,99775.39
2023-01-11T00:51:38.617Z,99780.79
2023-01-11T00:53:52.763Z,99783.04
2023-01-11T00:56:06.296Z,99782.30
2023-01-11T00:58:19.592Z,99782.16
2023-01-11T01:00:33.248Z,99788.89
2023-01-11T01:02:46.288Z,99795.42
2023-01-11T01:04:59.280Z,99795.52
2023-01-11T01:07:12.810Z,99793.24
2023-01-11T01:09:26.108Z,99795.68
2023-01-11T01:11:39.587Z,99798.09
2023-01-11T01:14:10.063Z,99801.39
2023-01-11T01:16:23.211Z,99812.18
2023-01-11T01:18:36.612Z,99816.06
2023-01-11T01:20:53.373Z,99814.91
2023-01-11T01:23:06.391Z,99817.36
2023-01-11T01:25:19.542Z,99817.48
2023-01-11T01:27:33.652Z,99815.01
2023-01-11T01:29:46.945Z,99816.19
2023-01-11T01:31:59.964Z,99815.76
2023-01-11T01:34:13.739Z,99822.13
2023-01-11T01:36:26.888Z,99831.10
2023-01-11T01:38:39.951Z,99833.77
2023-01-11T01:40:53.972Z,99829.59
2023-01-11T01:43:06.790Z,99824.29
2023-01-11T01:45:28.814Z,99819.36
2023-01-11T01:47:50.837Z,99817.77
2023-01-11T01:50:06.305Z,99814.95
2023-01-11T01:52:20.235Z,99814.07
2023-01-11T01:54:39.030Z,99817.73
2023-01-11T01:56:55.920Z,99817.34
2023-01-11T01:59:15.805Z,99826.42
2023-01-11T02:01:46.886Z,99832.62
2023-01-11T02:04:00.990Z,99840.66
2023-01-11T02:06:14.371Z,99846.99
2023-01-11T02:08:33.282Z,99853.77
2023-01-11T02:10:47.072Z,99857.82
2023-01-11T02:13:06.639Z,99858.92
2023-01-11T02:15:21.540Z,99864.90
2023-01-11T02:17:34.474Z,99870.27
2023-01-11T02:20:00.911Z,99870.86
2023-01-11T02:22:38.937Z,99870.60
2023-01-11T02:25:20.371Z,99866.89
2023-01-11T02:27:45.265Z,99868.00
2023-01-11T02:30:12.213Z,99868.06
2023-01-11T02:32:36.562Z,99864.29
2023-01-11T02:34:54.865Z,99865.89
2023-01-11T02:37:21.522Z,99873.14
2023-01-11T02:39:45.761Z,99872.09
2023-01-11T02:42:23.928Z,99872.15
2023-01-11T02:45:00.101Z,99877.38
2023-01-11T02:47:21.291Z,99877.34
2023-01-11T02:49:41.371Z,99881.45
2023-01-11T02:52:02.586Z,99890.21
2023-01-11T02:54:18.492Z,99890.81
2023-01-11T02:56:34.204Z,99892.14
2023-01-11T02:58:51.371Z,99891.34
2023-01-11T03:01:05.729Z,99893.81
2023-01-11T03:03:23.048Z,99893.29
2023-01-11T03:05:36.603Z,99896.55
2023-01-11T03:08:05.701Z,99900.40
2023-01-11T03:10:28.502Z,99903.41
2023-01-11T03:12:57.734Z,99899.75
2023-01-11T03:15:22.009Z,99906.48
2023-01-11T03:17:48.952Z,99914.02
2023-01-11T03:20:09.751Z,99919.54
2023-01-11T03:22:32.308Z,99926.32
2023-01-11T03:24:44.622Z,99929.48
2023-01-11T03:27:08.572Z,99934.59
2023-01-11T03:29:32.590Z,99944.38
2023-01-11T03:31:51.720Z,99947.13
2023-01-11T03:34:13.116Z,99946.05
2023-01-11T03:36:31.391Z,99943.91
2023-01-11T03:38:51.334Z,99951.73
2023-01-11T03:41:10.240Z,99954.42
2023-01-11T03:43:26.190Z,99960.61
2023-01-11T03:45:44.102Z,99968.88
2023-01-11T03:47:59.161Z,99971.77
2023-01-11T03:50:17.483Z,99973.80
2023-01-11T03:52:35.017Z,99975.05
2023-01-11T03:54:48.441Z,99974.04
2023-01-11T03:57:07.870Z,99980.64
2023-01-11T03:59:21.393Z,99984.02
2023-01-11T04:01:34.421Z,99990.23
2023-01-11T04:03:47.412Z,99992.85
2023-01-11T04:06:03.079Z,99999.65
2023-01-11T04:08:16.351Z,100003.47
2023-01-11T04:10:30.437Z,100007.41
2023-01-11T04:12:43.561Z,100012.44
2023-01-11T04:14:57.005Z,100015.33
2023-01-11T04:17:10.538Z,100020.52
2023-01-11T04:19:23.515Z,100028.79
2023-01-11T04:21:36.953Z,100028.58
2023-01-11T04:23:50.501Z,100027.47
2023-01-11T04:26:03.485Z,100027.53
2023-01-11T04:28:17.301Z,100024.74
2023-01-11T04:30:30.791Z,100025.14
2023-01-11T04:32:44.384Z,100030.91
2023-01-11T04:34:58.460Z,100038.71
2023-01-11T04:37:13.080Z,100040.43
2023-01-11T04:39:26.739Z,100038.59
2023-01-11T04:41:56.769Z,100046.67
2023-01-11T04:44:10.239Z,100043.49
2023-01-11T04:46:23.258Z,100045.97
2023-01-11T04:48:36.689Z,100047.48
2023-01-11T04:50:52.042Z,100049.91
2023-01-11T04:53:06.234Z,100051.77
2023-01-11T04:55:19.310Z,100051.56
2023-01-11T04:57:32.332Z,100056.73
2023-01-11T04:59:47.766Z,100059.66
2023-01-11T05:02:01.108Z,100060.89
2023-01-11T05:04:14.282Z,100064.52
2023-01-11T05:06:27.843Z,100070.48
2023-01-11T05:08:41.342Z,100076.66
2023-01-11T05:11:00.775Z,100075.50
2023-01-11T05:13:13.871Z,100071.48
2023-01-11T05:15:26.914Z,100067.67
2023-01-11T05:17:40.270Z,100070.23
2023-01-11T05:19:53.683Z,100071.64
2023-01-11T05:22:06.535Z,100075.70
2023-01-11T05:24:22.112Z,100077.67
2023-01-11T05:26:36.771Z,100083.78
2023-01-11T05:28:49.943Z,100093.20
2023-01-11T05:31:03.004Z,100100.01
2023-01-11T05:33:16.383Z,100106.88
2023-01-11T05:35:29.650Z,100110.97
2023-01-11T05:37:42.826Z,100109.77
2023-01-11T05:39:56.022Z,100108.48
2023-01-11T05:42:09.707Z,100110.30
2023-01-11T05:44:39.591Z,100115.40
2023-01-11T05:46:53.202Z,100123.34
2023-01-11T05:49:06.505Z,100138.99
2023-01-11T05:51:19.829Z,100137.41
2023-01-11T05:53:33.146Z,100138.70
2023-01-11T05:55:55.030Z,100140.36
2023-01-11T05:58:08.392Z,100146.13
2023-01-11T06:00:22.640Z,100153.29
2023-01-11T06:02:36.034Z,100155.36
2023-01-11T06:04:49.140Z,100166.11
2023-01-11T06:07:02.422Z,100169.70
2023-01-11T06:09:15.841Z,100168.69
2023-01-11T06:11:28.736Z,100172.41
2023-01-11T06:13:42.331Z,100177.63
2023-01-11T06:15:55.521Z,100177.76
2023-01-11T06:18:08.401Z,100178.94
2023-01-11T06:20:22.072Z,100187.38
2023-01-11T06:22:36.119Z,100195.15
2023-01-11T06:24:49.151Z,100193.99
2023-01-11T06:27:02.890Z,100196.73
2023-01-11T06:29:17.581Z,100200.88
2023-01-11T06:31:30.653Z,100204.90
2023-01-11T06:33:43.679Z,100208.34
2023-01-11T06:35:57.331Z,100219.20
2023-01-11T06:38:10.811Z,100223.80
2023-01-11T06:40:25.114Z,100227.59
2023-01-11T06:42:38.249Z,100228.59
2023-01-11T06:44:51.373Z,100229.09
2023-01-11T06:47:05.316Z,100234.48
2023-01-11T06:49:19.017Z,100235.12
2023-01-11T06:51:31.851Z,100241.50
2023-01-11T06:53:45.614Z,100243.08
2023-01-11T06:55:59.677Z,100249.88
2023-01-11T06:58:13.216Z,100253.53
2023-01-11T07:00:28.085Z,100252.26
2023-01-11T07:02:41.249Z,100255.95
2023-01-11T07:04:55.214Z,100260.77
2023-01-11T07:07:09.631Z,100263.96
2023-01-11T07:09:22.700Z,100263.82
2023-01-11T07:11:40.120Z,100266.00
2023-01-11T07:13:53.700Z,100271.02
2023-01-11T07:16:06.855Z,100277.23
2023-01-11T07:18:20.602Z,100278.31
2023-01-11T07:20:33.937Z,100273.34
2023-01-11T07:22:47.141Z,100276.30
2023-01-11T07:25:00.640Z,100276.65
2023-01-11T07:27:13.727Z,100279.52
2023-01-11T07:29:26.550Z,100282.86
2023-01-11T07:31:39.663Z,100290.27
2023-01-11T07:33:52.751Z,100296.04
2023-01-11T07:36:07.322Z,100298.14
2023-01-11T07:38:20.490Z,100301.42
2023-01-11T07:40:33.536Z,100302.13
2023-01-11T07:43:05.912Z,100302.59
2023-01-11T07:45:19.161Z,100304.79
2023-01-11T07:47:32.045Z,100305.79
2023-01-11T07:49:45.092Z,100303.06
2023-01-11T07:51:57.993Z,100301.45
2023-01-11T07:54:11.161Z,100297.04
2023-01-11T07:56:25.213Z,100306.80
2023-01-11T07:58:39.002Z,100316.38
2023-01-11T08:00:52.695Z,100322.97
2023-01-11T08:03:06.643Z,100328.06
2023-01-11T08:05:20.164Z,100340.20
2023-01-11T08:07:33.190Z,100337.68
2023-01-11T08:09:46.712Z,100334.70
2023-01-11T08:12:16.079Z,100337.80
2023-01-11T08:14:44.305Z,100343.35
2023-01-11T08:16:58.097Z,100342.74
2023-01-11T08:19:11.211Z,100338.33
2023-01-11T08:21:25.371Z,100341.27
2023-01-11T08:23:38.524Z,100340.15
2023-01-11T08:25:51.941Z,100342.96
2023-01-11T08:28:08.631Z,100339.44
2023-01-11T08:30:22.079Z,100342.25
2023-01-11T08:32:36.430Z,100342.48
2023-01-11T08:34:49.991Z,100351.50
2023-01-11T08:37:04.022Z,100339.05
2023-01-11T08:39:17.591Z,100341.23
2023-01-11T08:41:31.124Z,100344.14
2023-01-11T08:43:45.073Z,100348.05
2023-01-11T08:45:57.995Z,100351.65
2023-01-11T08:48:11.315Z,100353.77
2023-01-11T08:50:25.773Z,100358.23
2023-01-11T08:52:38.752Z,100355.73
2023-01-11T08:54:51.641Z,100354.48
2023-01-11T08:57:04.569Z,100361.23
2023-01-11T08:59:18.163Z,100368.15
2023-01-11T09:01:31.361Z,100377.99
2023-01-11T09:03:44.616Z,100373.35
2023-01-11T09:05:57.960Z,100384.39
2023-01-11T09:08:15.632Z,100385.84
2023-01-11T09:10:29.153Z,100384.00
2023-01-11T09:12:42.811Z,100392.23
2023-01-11T09:14:55.941Z,100386.55
2023-01-11T09:17:09.579Z,100396.65
2023-01-11T09:19:22.489Z,100394.08
2023-01-11T09:21:35.384Z,100397.44
2023-01-11T09:23:48.233Z,100404.27
2023-01-11T09:26:02.162Z,100392.23
2023-01-11T09:28:15.424Z,100400.42
2023-01-11T09:30:29.559Z,100400.80
2023-01-11T09:32:42.474Z,100399.36
2023-01-11T09:34:59.035Z,100395.58
2023-01-11T09:37:12.233Z,100400.77
2023-01-11T09:39:27.598Z,100405.88
2023-01-11T09:42:05.482Z,100410.04
2023-01-11T09:44:24.225Z,100409.98
2023-01-11T09:46:41.022Z,100411.59
2023-01-11T09:48:59.272Z,100412.10
2023-01-11T09:51:16.904Z,100432.81
2023-01-11T09:53:36.249Z,100435.72
2023-01-11T09:55:54.069Z,100446.48
2023-01-11T09:58:29.595Z,100450.36
2023-01-11T10:00:54.816Z,100449.83
2023-01-11T10:03:37.699Z,100455.86
2023-01-11T10:06:07.551Z,100463.52
2023-01-11T10:18:30.454Z,100490.42
2023-01-11T10:21:49.151Z,100496.44
2023-01-11T10:24:08.013Z,100496.83
2023-01-11T10:26:29.328Z,100498.04
2023-01-11T10:28:56.411Z,100502.59
2023-01-11T10:31:31.058Z,100506.85
2023-01-11T10:34:07.312Z,100510.72
2023-01-11T10:36:36.494Z,100510.51
2023-01-11T10:39:13.062Z,100520.91
2023-01-11T10:41:35.192Z,100531.08
2023-01-11T10:43:52.822Z,100528.20
2023-01-11T10:46:10.561Z,100528.37
2023-01-11T10:48:28.688Z,100522.86
2023-01-11T10:50:52.040Z,100522.71
2023-01-11T10:53:18.166Z,100522.59
2023-01-11T10:55:37.325Z,100528.89
2023-01-11T10:58:10.736Z,100525.55
2023-01-11T11:00:35.420Z,100534.61
2023-01-11T11:03:14.499Z,100539.23
2023-01-11T11:05:38.874Z,100546.48
2023-01-11T11:07:58.824Z,100543.84
2023-01-11T11:10:20.502Z,100555.09
2023-01-11T11:12:38.414Z,100565.42
2023-01-11T11:14:58.591Z,100572.64
2023-01-11T11:17:24.979Z,100582.88
2023-01-11T11:19:41.152Z,100583.45
2023-01-11T11:21:55.604Z,100597.54
2023-01-11T11:24:11.732Z,100599.09
2023-01-11T11:26:30.927Z,100590.52
2023-01-11T11:29:02.305Z,100606.55
2023-01-11T11:31:16.426Z,100601.80
2023-01-11T11:33:34.865Z,100602.89
2023-01-11T11:35:57.894Z,100610.09
2023-01-11T11:38:22.800Z,100606.27
2023-01-11T11:40:38.838Z,100608.80
2023-01-11T11:45:28.462Z,100613.52
2023-01-11T11:47:41.601Z,100615.38
2023-01-11T11:49:57.288Z,100621.50
2023-01-11T11:52:11.082Z,100623.62
2023-01-11T11:54:29.162Z,100626.70
2023-01-11T11:56:43.031Z,100631.98
2023-01-11T11:58:56.751Z,100634.45
2023-01-11T12:01:10.451Z,100642.23
2023-01-11T12:03:28.420Z,100638.01
2023-01-11T12:05:53.511Z,100646.05
2023-01-11T12:08:07.411Z,100644.77
2023-01-11T12:10:23.392Z,100656.41
2023-01-11T12:12:37.963Z,100662.06
2023-01-11T12:15:12.520Z,100667.88
2023-01-11T12:17:30.751Z,100669.91
2023-01-11T12:19:48.792Z,100670.15
2023-01-11T12:22:19.271Z,100667.38
2023-01-11T12:24:32.202Z,100659.96
2023-01-11T12:26:52.071Z,100664.52
2023-01-11T12:29:39.451Z,100674.23
2023-01-11T12:32:15.907Z,100672.23
2023-01-11T12:34:49.530Z,100669.27
2023-01-11T12:37:16.711Z,100677.89
2023-01-11T12:39:43.064Z,100685.21
2023-01-11T12:42:13.601Z,100686.36
2023-01-11T12:44:40.355Z,100685.35
2023-01-11T12:47:10.401Z,100694.34
2023-01-11T12:49:39.940Z,100688.47
2023-01-11T12:52:10.091Z,100698.49
2023-01-11T12:54:42.151Z,100698.27
2023-01-11T12:57:13.970Z,100694.64
2023-01-11T12:59:55.448Z,100699.00
2023-01-11T13:02:30.775Z,100700.13
2023-01-11T13:04:55.252Z,100700.76
2023-01-11T13:07:17.961Z,100696.60
2023-01-11T13:09:40.832Z,100700.77
2023-01-11T13:12:02.420Z,100698.17
2023-01-11T13:14:41.805Z,100699.13
2023-01-11T13:17:04.129Z,100696.90
2023-01-11T13:19:23.221Z,100694.46
2023-01-11T13:21:44.410Z,100695.20
2023-01-11T13:24:00.641Z,100702.45
2023-01-11T13:26:23.056Z,100703.52
2023-01-11T13:28:41.721Z,100707.02
2023-01-11T13:30:55.848Z,100704.14
2023-01-11T13:33:17.424Z,100709.23
2023-01-11T13:35:38.570Z,100704.91
2023-01-11T13:37:57.227Z,100711.74
2023-01-11T13:40:21.379Z,100712.17
2023-01-11T13:42:39.444Z,100708.98
2023-01-11T13:44:58.581Z,100713.15
2023-01-11T13:47:16.812Z,100715.17
2023-01-11T13:49:48.301Z,100716.98
2023-01-11T13:52:07.660Z,100715.92
2023-01-11T13:54:24.701Z,100725.00
2023-01-11T13:56:43.458Z,100722.39
2023-01-11T13:59:02.161Z,100725.30
2023-01-11T14:01:19.454Z,100726.44
2023-01-11T14:03:38.246Z,100726.37
2023-01-11T14:06:05.842Z,100725.48
2023-01-11T14:08:37.993Z,100734.43
2023-01-11T14:10:59.522Z,100729.23
2023-01-11T14:13:58.279Z,100738.75
2023-01-11T14:16:18.744Z,100736.09
2023-01-11T14:18:42.162Z,100734.94
2023-01-11T14:21:05.954Z,100737.20
2023-01-11T14:23:20.602Z,100732.86
2023-01-11T14:25:40.704Z,100744.10
2023-01-11T14:28:11.538Z,100742.43
2023-01-11T14:30:54.938Z,100756.34
2023-01-11T14:33:37.545Z,100757.95
2023-01-11T14:36:22.593Z,100755.54
2023-01-11T14:39:04.037Z,100763.55
2023-01-11T14:41:42.966Z,100756.10
2023-01-11T14:44:24.560Z,100754.70
2023-01-11T14:47:04.970Z,100756.44
2023-01-11T14:49:36.024Z,100765.16
2023-01-11T14:51:59.779Z,100765.89
2023-01-11T14:54:17.988Z,100766.48
2023-01-11T14:56:55.143Z,100762.20
2023-01-11T14:59:26.320Z,100772.13
2023-01-11T15:02:26.817Z,100766.08
2023-01-11T15:04:41.799Z,100777.59
2023-01-11T15:07:01.566Z,100774.51
2023-01-11T15:09:48.249Z,100776.63
2023-01-11T15:12:13.859Z,100784.44
2023-01-11T15:14:38.481Z,100781.40
2023-01-11T15:17:10.944Z,100778.41
2023-01-11T15:19:35.100Z,100775.29
2023-01-11T15:21:54.449Z,100779.55
2023-01-11T15:24:07.504Z,100787.48
2023-01-11T15:26:24.580Z,100777.31
2023-01-11T15:28:51.909Z,100772.95
2023-01-11T15:31:06.010Z,100772.63
2023-01-11T15:33:52.154Z,100762.71
2023-01-11T15:36:12.602Z,100770.73
2023-01-11T15:38:31.810Z,100767.91
2023-01-11T15:40:47.800Z,100768.99
2023-01-11T15:43:50.109Z,100767.86
2023-01-11T15:46:57.891Z,100771.25
2023-01-11T15:50:04.071Z,100764.89
2023-01-11T15:52:40.962Z,100772.38
2023-01-11T15:55:22.333Z,100770.10
2023-01-11T15:58:06.725Z,100768.59
2023-01-11T16:00:46.893Z,100766.05
2023-01-11T16:03:40.745Z,100767.73
2023-01-11T16:06:02.255Z,100765.30
2023-01-11T16:08:25.059Z,100763.67
2023-01-11T16:11:13.286Z,100767.97
2023-01-11T16:13:47.883Z,100756.31
2023-01-11T16:16:17.584Z,100764.45
2023-01-11T16:18:37.520Z,100766.94
2023-01-11T16:20:59.891Z,100766.02
2023-01-11T16:23:19.772Z,100769.23
2023-01-11T16:25:36.150Z,100766.69
2023-01-11T16:27:54.596Z,100772.55
2023-01-11T16:30:08.194Z,100774.66
2023-01-11T16:32:33.627Z,100772.33
2023-01-11T16:34:51.365Z,100775.08
2023-01-11T16:37:05.656Z,100779.15
2023-01-11T16:39:22.017Z,100781.22
2023-01-11T16:41:42.537Z,100779.44
2023-01-11T16:44:02.612Z,100767.13
2023-01-11T16:46:52.457Z,100768.62
2023-01-11T16:49:15.361Z,100761.79
2023-01-11T16:51:29.311Z,100773.66
2023-01-11T16:53:43.707Z,100772.16
2023-01-11T16:56:06.599Z,100768.67
2023-01-11T16:58:26.759Z,100771.36
2023-01-11T17:00:42.211Z,100773.42
2023-01-11T17:03:06.918Z,100769.45
2023-01-11T17:05:27.851Z,100773.39
2023-01-11T17:07:42.460Z,100770.64
2023-01-11T17:09:56.066Z,100781.02
2023-01-11T17:12:10.661Z,100770.45
2023-01-11T17:14:57.772Z,100768.52
2023-01-11T17:17:12.954Z,100766.00
2023-01-11T17:19:28.928Z,100762.87
2023-01-11T17:21:43.718Z,100768.77
2023-01-11T17:24:01.591Z,100769.55
2023-01-11T17:26:21.911Z,100770.94
2023-01-11T17:28:36.013Z,100766.30
2023-01-11T17:30:51.108Z,100772.12
2023-01-11T17:33:04.441Z,100771.94
2023-01-11T17:35:22.343Z,100765.89
2023-01-11T17:37:37.280Z,100765.53
2023-01-11T17:39:53.611Z,100767.06
2023-01-11T17:42:25.284Z,100764.02
2023-01-11T17:44:55.621Z,100764.16
2023-01-11T17:47:10.713Z,100767.41
2023-01-11T17:49:37.876Z,100769.41
2023-01-11T17:51:50.953Z,100764.73
2023-01-11T17:54:04.501Z,100765.72
2023-01-11T17:56:42.992Z,100764.98
2023-01-11T17:59:15.969Z,100757.39
2023-01-11T18:01:27.465Z,100755.19
2023-01-11T18:06:17.452Z,100753.83
2023-01-11T18:08:31.061Z,100754.71
2023-01-11T18:10:52.414Z,100751.72
2023-01-11T18:13:06.231Z,100754.95
2023-01-11T18:15:37.732Z,100764.20
2023-01-11T18:17:54.302Z,100766.37
2023-01-11T18:20:28.522Z,100762.30
2023-01-11T18:22:43.379Z,100763.63
2023-01-11T18:25:01.264Z,100768.57
2023-01-11T18:27:22.154Z,100774.82
2023-01-11T18:29:51.995Z,100777.39
2023-01-11T18:32:05.337Z,100779.16
2023-01-11T18:34:18.713Z,100771.08
2023-01-11T18:36:32.234Z,100760.52
2023-01-11T18:38:45.531Z,100755.05
2023-01-11T18:41:00.623Z,100739.94
2023-01-11T18:43:16.132Z,100737.04
2023-01-11T18:45:29.579Z,100729.31
2023-01-11T18:47:44.206Z,100734.14
2023-01-11T18:49:59.090Z,100737.36
2023-01-11T18:52:12.692Z,100745.04
2023-01-11T18:54:26.399Z,100749.73
2023-01-11T18:56:39.501Z,100746.60
2023-01-11T18:58:52.587Z,100742.77
2023-01-11T19:01:06.800Z,100742.83
2023-01-11T19:03:20.192Z,100744.18
2023-01-11T19:05:33.990Z,100753.19
2023-01-11T19:07:47.431Z,100757.63
2023-01-11T19:10:00.575Z,100755.40
2023-01-11T19:12:13.991Z,100753.79
2023-01-11T19:14:27.404Z,100754.70
2023-01-11T19:16:41.222Z,100760.11
2023-01-11T19:18:57.156Z,100761.37
2023-01-11T19:21:14.586Z,100754.70
2023-01-11T19:23:28.356Z,100760.37
2023-01-11T19:25:41.551Z,100762.97
2023-01-11T19:27:55.090Z,100767.18
2023-01-11T19:30:13.531Z,100764.54
2023-01-11T19:32:26.885Z,100755.79
2023-01-11T19:34:41.767Z,100758.98
2023-01-11T19:36:56.017Z,100754.68
2023-01-11T19:39:10.151Z,100751.29
2023-01-11T19:41:23.831Z,100748.18
2023-01-11T19:43:37.552Z,100748.94
2023-01-11T19:46:01.070Z,100747.83
2023-01-11T19:48:14.340Z,100752.45
2023-01-11T19:50:27.500Z,100751.38
2023-01-11T19:52:41.141Z,100755.46
2023-01-11T19:54:56.002Z,100756.86
2023-01-11T19:57:11.441Z,100762.16
2023-01-11T19:59:25.630Z,100761.13
2023-01-11T20:01:39.052Z,100754.13
2023-01-11T20:03:52.941Z,100752.72
2023-01-11T20:06:11.910Z,100753.84
2023-01-11T20:08:25.053Z,100757.90
2023-01-11T20:10:38.250Z,100753.13
2023-01-11T20:12:51.502Z,100749.05
2023-01-11T20:15:04.934Z,100757.32
2023-01-11T20:17:22.131Z,100756.89
2023-01-11T20:19:35.254Z,100748.56
2023-01-11T20:21:48.271Z,100758.23
2023-01-11T20:24:01.401Z,100764.16
2023-01-11T20:26:16.423Z,100752.67
2023-01-11T20:28:29.382Z,100745.20
2023-01-11T20:30:45.665Z,100747.52
2023-01-11T20:32:58.561Z,100738.12
2023-01-11T20:35:13.101Z,100743.13
2023-01-11T20:37:26.104Z,100734.23
2023-01-11T20:39:39.013Z,100724.41
2023-01-11T20:41:52.204Z,100722.86
2023-01-11T20:44:05.630Z,100731.20
2023-01-11T20:46:18.492Z,100739.73
2023-01-11T20:48:31.679Z,100746.86
2023-01-11T20:50:44.691Z,100736.84
2023-01-11T20:53:00.582Z,100737.07
2023-01-11T20:55:15.458Z,100736.48
2023-01-11T20:57:30.478Z,100737.61
2023-01-11T20:59:43.589Z,100735.38
2023-01-11T21:01:56.669Z,100737.06
2023-01-11T21:04:11.499Z,100728.30
2023-01-11T21:06:24.580Z,100723.36
2023-01-11T21:08:37.643Z,100722.04
2023-01-11T21:10:50.762Z,100725.58
2023-01-11T21:13:04.990Z,100727.16
2023-01-11T21:15:18.700Z,100715.77
2023-01-11T21:17:31.763Z,100696.08
2023-01-11T21:19:45.504Z,100681.12
2023-01-11T21:21:58.910Z,100681.36
2023-01-11T21:24:14.783Z,100681.35
2023-01-11T21:26:28.098Z,100694.41
2023-01-11T21:28:41.263Z,100687.75
2023-01-11T21:30:56.118Z,100678.84
2023-01-11T21:33:09.278Z,100670.91
2023-01-11T21:35:22.568Z,100671.88
2023-01-11T21:37:36.304Z,100670.31
2023-01-11T21:39:49.391Z,100670.77
2023-01-11T21:42:04.649Z,100690.02
2023-01-11T21:44:19.076Z,100682.64
2023-01-11T21:46:32.235Z,100697.21
2023-01-11T21:48:46.091Z,100694.77
2023-01-11T21:51:00.037Z,100688.15
2023-01-11T21:53:13.743Z,100680.27
2023-01-11T21:55:27.278Z,100686.42
2023-01-11T21:57:40.745Z,100691.52
2023-01-11T21:59:53.700Z,100693.08
2023-01-11T22:02:10.763Z,100685.33
2023-01-11T22:04:24.678Z,100669.89
2023-01-11T22:06:39.773Z,100659.51
2023-01-11T22:08:52.725Z,100636.96
2023-01-11T22:11:07.019Z,100637.34
2023-01-11T22:13:20.701Z,100627.76
2023-01-11T22:15:33.520Z,100622.02
2023-01-11T22:17:50.580Z,100632.11
2023-01-11T22:20:04.028Z,100633.45
2023-01-11T22:22:20.899Z,100637.88
2023-01-11T22:24:33.700Z,100616.88
2023-01-11T22:26:47.318Z,100612.35
2023-01-11T22:29:16.120Z,100619.73
2023-01-11T22:31:31.308Z,100613.84
2023-01-11T22:33:44.851Z,100622.84
2023-01-11T22:36:03.324Z,100625.67
2023-01-11T22:38:17.055Z,100633.05
2023-01-11T22:40:30.280Z,100642.47
2023-01-11T22:42:44.200Z,100632.50
2023-01-11T22:44:57.531Z,100623.92
2023-01-11T22:47:10.512Z,100623.21
2023-01-11T22:49:24.093Z,100640.84
2023-01-11T22:51:37.873Z,100622.83
2023-01-11T22:53:53.882Z,100627.20
2023-01-11T22:56:10.141Z,100624.89
2023-01-11T22:58:23.300Z,100611.60
2023-01-11T23:00:36.992Z,100608.98
2023-01-11T23:02:50.197Z,100596.84
2023-01-11T23:05:04.672Z,100606.89
2023-01-11T23:07:18.840Z,100610.87
2023-01-11T23:09:31.850Z,100618.14
2023-01-11T23:12:01.839Z,100643.38
2023-01-11T23:14:16.897Z,100657.83
2023-01-11T23:16:29.807Z,100662.95
2023-01-11T23:18:43.172Z,100649.50
2023-01-11T23:20:56.471Z,100662.18
2023-01-11T23:23:09.451Z,100654.33
2023-01-11T23:25:23.221Z,100654.96
2023-01-11T23:27:36.140Z,100662.55
2023-01-11T23:29:49.656Z,100664.65
2023-01-11T23:32:02.808Z,100676.93
2023-01-11T23:34:17.412Z,100658.66
2023-01-11T23:36:34.178Z,100662.98
2023-01-11T23:38:47.490Z,100665.02
2023-01-11T23:41:24.171Z,100659.17
2023-01-11T23:43:39.214Z,100660.02
2023-01-11T23:45:52.327Z,100656.71
2023-01-11T23:48:05.560Z,100654.81
2023-01-11T23:50:19.069Z,100657.61
2023-01-11T23:52:35.194Z,100652.46
2023-01-11T23:54:48.583Z,100657.26
2023-01-11T23:57:02.003Z,100632.81
2023-01-11T23:59:15.599Z,100640.15
